createdAt,value
2022-08-22T00:00:18.404Z,95018.03
2022-08-22T00:02:42.589Z,95010.47
2022-08-22T00:02:52.480Z,95002.25
2022-08-22T00:03:15.736Z,95005.47
2022-08-22T00:03:17.346Z,95017.75
2022-08-22T00:06:26.291Z,95016.50
2022-08-22T00:09:03.182Z,95020.91
2022-08-22T00:11:37.272Z,95022.03
2022-08-22T00:14:31.117Z,95011.16
2022-08-22T00:17:12.545Z,95017.75
2022-08-22T00:19:49.725Z,95013.75
2022-08-22T00:22:50.830Z,95011.94
2022-08-22T00:25:47.946Z,95007.78
2022-08-22T00:28:17.432Z,95004.16
2022-08-22T00:30:58.607Z,95004.50
2022-08-22T00:33:39.015Z,95005.00
2022-08-22T00:36:16.158Z,95005.34
2022-08-22T00:38:56.730Z,95001.41
2022-08-22T00:41:48.019Z,95012.66
2022-08-22T00:44:35.631Z,95007.09
2022-08-22T00:47:19.815Z,95002.47
2022-08-22T00:50:08.201Z,95006.84
2022-08-22T00:52:49.957Z,95008.72
2022-08-22T00:58:39.524Z,94993.06
2022-08-22T01:01:11.555Z,95003.00
2022-08-22T01:04:03.069Z,95004.22
2022-08-22T01:06:47.609Z,94997.84
2022-08-22T01:09:37.285Z,94990.94
2022-08-22T01:12:31.569Z,94988.41
2022-08-22T01:15:07.190Z,94990.91
2022-08-22T01:18:00.224Z,94991.16
2022-08-22T01:21:02.020Z,94988.91
2022-08-22T01:23:59.673Z,94988.69
2022-08-22T01:26:53.472Z,94980.16
2022-08-22T01:29:28.483Z,94985.56
2022-08-22T01:32:32.744Z,94980.94
2022-08-22T01:35:21.009Z,94989.41
2022-08-22T01:38:26.729Z,94989.03
2022-08-22T01:41:10.377Z,94984.25
2022-08-22T01:44:30.793Z,94978.50
2022-08-22T01:47:08.616Z,94969.63
2022-08-22T01:49:35.218Z,94983.31
2022-08-22T01:52:07.294Z,94971.22
2022-08-22T01:54:54.842Z,94971.09
2022-08-22T01:57:24.688Z,94972.31
2022-08-22T01:59:57.499Z,94967.22
2022-08-22T02:02:29.812Z,94972.88
2022-08-22T02:05:21.785Z,94966.03
2022-08-22T02:07:54.296Z,94963.66
2022-08-22T02:10:48.746Z,94959.88
2022-08-22T02:13:43.280Z,94961.56
2022-08-22T02:16:25.647Z,94960.28
2022-08-22T02:19:15.275Z,94953.69
2022-08-22T02:21:47.516Z,94961.97
2022-08-22T02:24:28.664Z,94959.22
2022-08-22T02:27:31.726Z,94957.41
2022-08-22T02:30:07.530Z,94958.22
2022-08-22T02:32:45.182Z,94950.88
2022-08-22T02:35:27.259Z,94951.41
2022-08-22T02:38:12.022Z,94946.91
2022-08-22T02:40:48.248Z,94946.75
2022-08-22T02:43:23.246Z,94948.53
2022-08-22T02:46:03.196Z,94956.34
2022-08-22T02:49:04.552Z,94945.78
2022-08-22T02:51:45.762Z,94940.72
2022-08-22T02:54:21.239Z,94937.38
2022-08-22T02:56:50.704Z,94932.06
2022-08-22T02:59:34.235Z,94938.13
2022-08-22T03:02:33.799Z,94929.81
2022-08-22T03:05:17.980Z,94930.25
2022-08-22T03:08:03.068Z,94926.56
2022-08-22T03:11:09.631Z,94927.47
2022-08-22T03:13:59.053Z,94928.78
2022-08-22T03:16:39.498Z,94927.81
2022-08-22T03:19:18.432Z,94924.03
2022-08-22T03:22:13.750Z,94920.03
2022-08-22T03:24:55.453Z,94921.94
2022-08-22T03:27:33.443Z,94923.25
2022-08-22T03:30:30.889Z,94915.19
2022-08-22T03:33:16.597Z,94918.66
2022-08-22T03:35:46.138Z,94913.63
2022-08-22T03:38:28.134Z,94902.09
2022-08-22T03:41:12.780Z,94911.94
2022-08-22T03:44:18.116Z,94903.88
2022-08-22T03:47:06.291Z,94909.75
2022-08-22T03:49:32.856Z,94907.78
2022-08-22T03:52:18.426Z,94904.91
2022-08-22T03:55:22.326Z,94909.06
2022-08-22T03:58:27.654Z,94915.59
2022-08-22T04:01:39.168Z,94921.84
2022-08-22T04:04:27.950Z,94911.03
2022-08-22T04:07:33.409Z,94912.44
2022-08-22T04:10:28.139Z,94921.25
2022-08-22T04:13:21.193Z,94917.53
2022-08-22T04:16:25.329Z,94916.84
2022-08-22T04:18:57.539Z,94928.41
2022-08-22T04:21:38.214Z,94930.81
2022-08-22T04:24:04.808Z,94930.25
2022-08-22T04:26:42.784Z,94935.25
2022-08-22T04:29:17.800Z,94933.31
2022-08-22T04:31:57.686Z,94931.16
2022-08-22T04:35:20.089Z,94930.56
2022-08-22T04:37:55.595Z,94933.38
2022-08-22T04:40:48.181Z,94932.41
2022-08-22T04:43:34.024Z,94932.00
2022-08-22T04:46:36.889Z,94932.66
2022-08-22T04:49:40.236Z,94936.84
2022-08-22T04:52:09.727Z,94931.75
2022-08-22T04:55:02.686Z,94936.91
2022-08-22T04:57:41.239Z,94945.50
2022-08-22T05:00:10.596Z,94947.28
2022-08-22T05:02:48.336Z,94952.25
2022-08-22T05:05:24.096Z,94955.47
2022-08-22T05:07:59.830Z,94961.88
2022-08-22T05:10:35.996Z,94957.91
2022-08-22T05:13:08.654Z,94969.63
2022-08-22T05:15:44.144Z,94972.72
2022-08-22T05:18:24.018Z,94978.41
2022-08-22T05:21:01.441Z,94981.16
2022-08-22T05:23:41.685Z,94985.50
2022-08-22T05:26:12.334Z,94992.94
2022-08-22T05:28:52.508Z,94993.06
2022-08-22T05:31:41.533Z,94996.59
2022-08-22T05:34:15.255Z,94997.00
2022-08-22T05:36:54.006Z,94985.16
2022-08-22T05:39:25.620Z,94990.44
2022-08-22T05:41:58.391Z,94985.03
2022-08-22T05:44:31.914Z,94993.69
2022-08-22T05:47:04.567Z,95000.97
2022-08-22T05:49:49.059Z,94999.94
2022-08-22T05:52:27.010Z,94997.44
2022-08-22T05:55:18.896Z,95001.97
2022-08-22T05:58:13.102Z,95002.25
2022-08-22T06:00:45.316Z,94996.16
2022-08-22T06:03:30.657Z,94991.00
2022-08-22T06:06:09.967Z,94994.72
2022-08-22T06:08:43.612Z,94997.59
2022-08-22T06:11:26.582Z,94991.06
2022-08-22T06:14:29.783Z,94991.16
2022-08-22T06:17:10.950Z,94991.28
2022-08-22T06:19:45.662Z,94992.47
2022-08-22T06:22:26.691Z,94993.31
2022-08-22T06:25:00.146Z,94999.47
2022-08-22T06:27:31.175Z,94993.44
2022-08-22T06:30:03.334Z,94991.19
2022-08-22T06:33:00.171Z,94988.81
2022-08-22T06:35:35.998Z,94991.91
2022-08-22T06:38:03.860Z,94994.34
2022-08-22T06:40:30.682Z,95001.03
2022-08-22T06:42:59.041Z,95008.50
2022-08-22T06:45:30.831Z,95007.50
2022-08-22T06:48:16.324Z,95011.13
2022-08-22T06:50:47.726Z,95017.56
2022-08-22T06:53:47.943Z,95008.66
2022-08-22T06:56:26.339Z,95015.09
2022-08-22T06:58:58.740Z,95022.19
2022-08-22T07:01:33.699Z,95008.91
2022-08-22T07:04:08.918Z,95009.59
2022-08-22T07:06:40.544Z,95001.00
2022-08-22T07:09:22.770Z,94999.72
2022-08-22T07:11:53.384Z,94990.03
2022-08-22T07:14:29.236Z,95005.47
2022-08-22T07:17:00.958Z,95000.28
2022-08-22T07:19:32.026Z,94999.69
2022-08-22T07:22:09.522Z,95000.03
2022-08-22T07:24:36.840Z,94993.91
2022-08-22T07:27:17.613Z,94993.44
2022-08-22T07:29:47.158Z,95001.97
2022-08-22T07:32:18.807Z,94998.09
2022-08-22T07:34:51.124Z,94991.56
2022-08-22T07:37:25.806Z,94998.41
2022-08-22T07:40:11.829Z,95013.16
2022-08-22T07:43:15.564Z,95001.28
2022-08-22T07:45:57.049Z,94996.31
2022-08-22T07:48:59.516Z,95002.34
2022-08-22T07:51:53.862Z,94995.63
2022-08-22T07:54:39.793Z,95003.22
2022-08-22T07:57:13.989Z,94996.09
2022-08-22T07:59:48.028Z,94994.00
2022-08-22T08:02:18.424Z,94987.91
2022-08-22T08:04:50.346Z,94988.44
2022-08-22T08:07:21.802Z,94990.56
2022-08-22T08:10:01.106Z,94991.81
2022-08-22T08:12:37.949Z,94992.94
2022-08-22T08:15:10.325Z,94986.63
2022-08-22T08:17:40.514Z,94992.97
2022-08-22T08:20:12.386Z,94993.00
2022-08-22T08:22:46.158Z,94990.59
2022-08-22T08:25:17.443Z,94992.22
2022-08-22T08:27:45.120Z,94997.38
2022-08-22T08:30:21.973Z,94998.81
2022-08-22T08:32:59.603Z,95000.94
2022-08-22T08:36:06.151Z,94999.13
2022-08-22T08:38:55.419Z,94987.78
2022-08-22T08:41:59.216Z,94985.19
2022-08-22T08:44:47.447Z,94992.50
2022-08-22T08:47:31.188Z,94997.88
2022-08-22T08:50:23.900Z,94993.91
2022-08-22T08:53:25.805Z,94995.16
2022-08-22T08:56:19.954Z,94994.91
2022-08-22T08:59:03.829Z,94987.81
2022-08-22T09:02:02.576Z,94987.34
2022-08-22T09:05:06.658Z,94984.03
2022-08-22T09:07:42.790Z,94977.59
2022-08-22T09:10:29.372Z,94981.91
2022-08-22T09:13:26.963Z,94979.66
2022-08-22T09:16:04.240Z,94980.31
2022-08-22T09:18:50.431Z,94983.72
2022-08-22T09:21:44.217Z,94984.53
2022-08-22T09:24:10.790Z,94968.31
2022-08-22T09:26:52.468Z,94971.13
2022-08-22T09:29:54.611Z,94963.84
2022-08-22T09:32:55.754Z,94960.03
2022-08-22T09:35:46.953Z,94963.72
2022-08-22T09:38:27.595Z,94964.63
2022-08-22T09:41:07.207Z,94965.22
2022-08-22T09:44:02.923Z,94957.66
2022-08-22T09:46:40.470Z,94959.53
2022-08-22T09:49:26.493Z,94963.56
2022-08-22T09:52:15.626Z,94960.69
2022-08-22T09:55:35.548Z,94973.84
2022-08-22T09:58:38.850Z,94979.91
2022-08-22T10:01:11.272Z,94962.72
2022-08-22T10:04:22.968Z,94965.94
2022-08-22T10:06:58.519Z,94962.22
2022-08-22T10:09:42.164Z,94976.09
2022-08-22T10:12:24.791Z,94968.94
2022-08-22T10:15:27.082Z,94971.50
2022-08-22T10:18:36.535Z,94970.06
2022-08-22T10:21:36.719Z,94979.44
2022-08-22T10:24:25.575Z,94970.84
2022-08-22T10:26:57.635Z,94969.25
2022-08-22T10:29:43.418Z,94970.66
2022-08-22T10:32:39.834Z,94965.56
2022-08-22T10:35:18.026Z,94961.53
2022-08-22T10:37:56.986Z,94965.91
2022-08-22T10:40:29.353Z,94963.22
2022-08-22T10:43:13.113Z,94956.03
2022-08-22T10:45:47.361Z,94950.91
2022-08-22T10:48:29.449Z,94953.16
2022-08-22T10:51:12.239Z,94947.56
2022-08-22T10:53:44.499Z,94949.22
2022-08-22T10:56:52.869Z,94945.19
2022-08-22T10:59:29.479Z,94947.63
2022-08-22T11:02:31.580Z,94943.63
2022-08-22T11:05:24.573Z,94947.09
2022-08-22T11:08:00.133Z,94947.03
2022-08-22T11:11:04.437Z,94947.53
2022-08-22T11:13:58.395Z,94947.78
2022-08-22T11:16:42.153Z,94927.88
2022-08-22T11:19:15.933Z,94939.84
2022-08-22T11:21:51.047Z,94940.13
2022-08-22T11:24:55.688Z,94935.53
2022-08-22T11:28:08.527Z,94934.13
2022-08-22T11:30:58.844Z,94931.06
2022-08-22T11:33:46.599Z,94926.19
2022-08-22T11:36:33.020Z,94927.28
2022-08-22T11:39:18.359Z,94918.91
2022-08-22T11:42:12.465Z,94922.28
2022-08-22T11:45:02.092Z,94930.91
2022-08-22T11:47:49.889Z,94920.59
2022-08-22T11:50:35.308Z,94912.75
2022-08-22T11:53:54.843Z,94912.59
2022-08-22T11:56:32.021Z,94914.00
2022-08-22T11:58:58.746Z,94907.78
2022-08-22T12:01:28.267Z,94911.00
2022-08-22T12:04:29.551Z,94907.81
2022-08-22T12:07:24.692Z,94909.72
2022-08-22T12:10:02.359Z,94908.06
2022-08-22T12:12:54.737Z,94911.72
2022-08-22T12:15:30.770Z,94905.00
2022-08-22T12:18:25.108Z,94905.13
2022-08-22T12:21:03.370Z,94899.44
2022-08-22T12:23:48.574Z,94898.28
2022-08-22T12:26:16.277Z,94909.63
2022-08-22T12:29:03.262Z,94898.56
2022-08-22T12:31:47.149Z,94897.63
2022-08-22T12:34:16.887Z,94901.25
2022-08-22T12:36:52.537Z,94894.47
2022-08-22T12:39:26.293Z,94899.66
2022-08-22T12:42:31.115Z,94890.47
2022-08-22T12:45:45.450Z,94904.38
2022-08-22T12:48:32.305Z,94885.75
2022-08-22T12:51:29.518Z,94880.31
2022-08-22T12:54:23.876Z,94889.25
2022-08-22T12:57:23.548Z,94875.97
2022-08-22T12:59:58.178Z,94886.03
2022-08-22T13:02:35.201Z,94882.91
2022-08-22T13:05:09.215Z,94869.44
2022-08-22T13:07:39.130Z,94866.78
2022-08-22T13:10:14.965Z,94873.44
2022-08-22T13:12:50.086Z,94870.28
2022-08-22T13:15:45.152Z,94869.38
2022-08-22T13:18:29.666Z,94863.31
2022-08-22T13:21:04.338Z,94866.69
2022-08-22T13:23:58.308Z,94864.44
2022-08-22T13:26:33.597Z,94861.16
2022-08-22T13:31:59.236Z,94863.97
2022-08-22T13:34:53.780Z,94867.78
2022-08-22T13:37:31.597Z,94856.47
2022-08-22T13:40:04.116Z,94857.75
2022-08-22T13:42:40.114Z,94858.03
2022-08-22T13:45:23.144Z,94845.28
2022-08-22T13:47:59.709Z,94849.03
2022-08-22T13:50:37.476Z,94849.50
2022-08-22T13:53:34.899Z,94852.09
2022-08-22T13:56:15.618Z,94843.69
2022-08-22T13:58:55.918Z,94845.47
2022-08-22T14:01:37.724Z,94844.72
2022-08-22T14:04:32.319Z,94841.56
2022-08-22T14:07:02.929Z,94835.28
2022-08-22T14:09:35.278Z,94840.84
2022-08-22T14:12:17.261Z,94831.28
2022-08-22T14:14:55.015Z,94839.16
2022-08-22T14:17:33.663Z,94829.19
2022-08-22T14:20:32.476Z,94839.53
2022-08-22T14:23:11.266Z,94832.53
2022-08-22T14:25:41.462Z,94838.88
2022-08-22T14:28:27.586Z,94826.88
2022-08-22T14:31:02.490Z,94827.03
2022-08-22T14:33:43.554Z,94830.06
2022-08-22T14:36:24.591Z,94832.03
2022-08-22T14:39:10.192Z,94827.31
2022-08-22T14:41:56.285Z,94834.03
2022-08-22T14:44:33.974Z,94838.00
2022-08-22T14:47:32.346Z,94836.88
2022-08-22T14:49:58.384Z,94830.69
2022-08-22T14:52:34.355Z,94836.75
2022-08-22T14:55:24.138Z,94828.69
2022-08-22T14:57:54.428Z,94837.03
2022-08-22T15:00:36.265Z,94846.84
2022-08-22T15:03:20.429Z,94832.06
2022-08-22T15:06:11.466Z,94834.44
2022-08-22T15:08:50.547Z,94830.94
2022-08-22T15:11:17.170Z,94824.34
2022-08-22T15:13:55.292Z,94828.88
2022-08-22T15:16:36.722Z,94828.09
2022-08-22T15:19:24.821Z,94821.88
2022-08-22T15:22:03.946Z,94822.72
2022-08-22T15:24:31.613Z,94826.63
2022-08-22T15:26:59.500Z,94814.63
2022-08-22T15:29:34.065Z,94825.00
2022-08-22T15:32:05.657Z,94825.72
2022-08-22T15:34:42.929Z,94818.94
2022-08-22T15:37:18.658Z,94815.91
2022-08-22T15:40:11.983Z,94815.03
2022-08-22T15:42:51.272Z,94818.28
2022-08-22T15:45:36.288Z,94805.28
2022-08-22T15:48:24.547Z,94807.44
2022-08-22T15:51:02.652Z,94806.41
2022-08-22T15:54:00.044Z,94807.97
2022-08-22T15:56:35.300Z,94811.66
2022-08-22T15:59:54.217Z,94814.75
2022-08-22T16:02:39.807Z,94810.84
2022-08-22T16:05:09.360Z,94813.63
2022-08-22T16:08:04.706Z,94813.56
2022-08-22T16:10:39.350Z,94820.19
2022-08-22T16:13:27.843Z,94814.63
2022-08-22T16:16:17.022Z,94809.56
2022-08-22T16:18:43.587Z,94805.28
2022-08-22T16:21:16.505Z,94821.63
2022-08-22T16:23:46.133Z,94808.59
2022-08-22T16:26:19.332Z,94809.88
2022-08-22T16:28:59.248Z,94810.75
2022-08-22T16:31:32.765Z,94811.53
2022-08-22T16:34:18.401Z,94808.91
2022-08-22T16:37:03.180Z,94818.19
2022-08-22T16:39:36.406Z,94812.06
2022-08-22T16:42:15.104Z,94811.34
2022-08-22T16:44:47.128Z,94815.09
2022-08-22T16:47:13.684Z,94814.84
2022-08-22T16:49:49.011Z,94820.72
2022-08-22T16:52:21.486Z,94821.97
2022-08-22T16:54:51.854Z,94810.28
2022-08-22T16:57:59.421Z,94814.44
2022-08-22T17:00:51.022Z,94812.56
2022-08-22T17:03:29.542Z,94816.06
2022-08-22T17:06:29.972Z,94821.63
2022-08-22T17:09:44.780Z,94825.34
2022-08-22T17:12:41.372Z,94819.75
2022-08-22T17:15:28.748Z,94829.16
2022-08-22T17:18:13.859Z,94828.81
2022-08-22T17:20:46.956Z,94829.25
2022-08-22T17:23:41.108Z,94841.59
2022-08-22T17:26:20.122Z,94836.84
2022-08-22T17:29:09.675Z,94835.09
2022-08-22T17:32:00.807Z,94835.09
2022-08-22T17:34:36.737Z,94836.84
2022-08-22T17:37:19.896Z,94845.28
2022-08-22T17:40:01.915Z,94836.84
2022-08-22T17:42:40.843Z,94848.53
2022-08-22T17:45:27.898Z,94846.78
2022-08-22T17:48:24.778Z,94841.06
2022-08-22T17:51:12.652Z,94845.38
2022-08-22T17:53:47.202Z,94846.31
2022-08-22T17:56:22.470Z,94840.94
2022-08-22T17:59:00.714Z,94851.41
2022-08-22T18:01:44.398Z,94856.97
2022-08-22T18:04:27.221Z,94859.66
2022-08-22T18:07:19.953Z,94861.91
2022-08-22T18:09:56.602Z,94860.47
2022-08-22T18:12:48.238Z,94865.41
2022-08-22T18:15:45.776Z,94870.00
2022-08-22T18:18:28.260Z,94870.00
2022-08-22T18:21:05.637Z,94875.56
2022-08-22T18:23:44.206Z,94872.09
2022-08-22T18:26:35.022Z,94873.84
2022-08-22T18:29:26.904Z,94874.63
2022-08-22T18:32:07.386Z,94882.56
2022-08-22T18:34:45.350Z,94882.44
2022-08-22T18:37:30.705Z,94881.81
2022-08-22T18:40:50.001Z,94884.19
2022-08-22T18:43:18.445Z,94881.22
2022-08-22T18:45:47.801Z,94883.53
2022-08-22T18:48:54.385Z,94887.22
2022-08-22T18:51:31.415Z,94887.03
2022-08-22T18:54:07.987Z,94893.97
2022-08-22T18:56:49.327Z,94890.84
2022-08-22T18:59:15.881Z,94892.94
2022-08-22T19:01:45.416Z,94893.97
2022-08-22T19:04:30.639Z,94895.06
2022-08-22T19:07:32.814Z,94892.03
2022-08-22T19:10:17.734Z,94900.28
2022-08-22T19:13:17.609Z,94901.75
2022-08-22T19:16:35.146Z,94905.78
2022-08-22T19:19:17.346Z,94907.38
2022-08-22T19:22:14.958Z,94915.47
2022-08-22T19:25:16.049Z,94919.06
2022-08-22T19:28:04.639Z,94925.31
2022-08-22T19:30:33.987Z,94919.06
2022-08-22T19:33:08.030Z,94924.84
2022-08-22T19:35:45.056Z,94920.25
2022-08-22T19:38:12.491Z,94920.03
2022-08-22T19:40:44.894Z,94917.16
2022-08-22T19:43:35.660Z,94924.19
2022-08-22T19:46:08.988Z,94921.72
2022-08-22T19:48:46.323Z,94923.41
2022-08-22T19:51:31.264Z,94919.91
2022-08-22T19:54:14.490Z,94917.03
2022-08-22T19:57:10.144Z,94923.97
2022-08-22T19:59:56.894Z,94921.59
2022-08-22T20:02:36.529Z,94927.56
2022-08-22T20:05:19.598Z,94928.56
2022-08-22T20:08:17.320Z,94925.78
2022-08-22T20:11:12.147Z,94923.16
2022-08-22T20:13:39.331Z,94927.56
2022-08-22T20:16:14.668Z,94929.75
2022-08-22T20:19:05.047Z,94924.59
2022-08-22T20:21:40.741Z,94923.72
2022-08-22T20:24:12.600Z,94927.19
2022-08-22T20:26:57.678Z,94924.31
2022-08-22T20:29:34.874Z,94932.19
2022-08-22T20:32:05.087Z,94934.16
2022-08-22T20:34:37.449Z,94932.59
2022-08-22T20:37:27.029Z,94936.41
2022-08-22T20:40:32.284Z,94933.34
2022-08-22T20:43:10.875Z,94934.16
2022-08-22T20:45:59.514Z,94934.31
2022-08-22T20:48:35.534Z,94930.38
2022-08-22T20:51:08.806Z,94935.09
2022-08-22T20:53:36.999Z,94929.63
2022-08-22T20:56:04.748Z,94926.16
2022-08-22T20:58:39.064Z,94926.94
2022-08-22T21:01:10.581Z,94934.22
2022-08-22T21:03:37.180Z,94933.84
2022-08-22T21:06:20.639Z,94933.09
2022-08-22T21:08:49.112Z,94941.59
2022-08-22T21:11:22.389Z,94938.44
2022-08-22T21:13:50.472Z,94935.34
2022-08-22T21:16:33.055Z,94934.16
2022-08-22T21:19:00.924Z,94930.75
2022-08-22T21:21:34.216Z,94936.09
2022-08-22T21:24:04.585Z,94940.75
2022-08-22T21:26:36.742Z,94934.69
2022-08-22T21:29:07.607Z,94939.34
2022-08-22T21:32:07.963Z,94936.25
2022-08-22T21:34:41.512Z,94942.53
2022-08-22T21:37:14.338Z,94937.88
2022-08-22T21:39:46.463Z,94936.25
2022-08-22T21:42:25.066Z,94936.03
2022-08-22T21:44:59.240Z,94940.69
2022-08-22T21:47:31.033Z,94934.34
2022-08-22T21:50:15.044Z,94948.47
2022-08-22T21:52:58.724Z,94933.75
2022-08-22T21:55:25.408Z,94932.06
2022-08-22T21:58:31.009Z,94942.56
2022-08-22T22:01:28.149Z,94935.63
2022-08-22T22:03:57.546Z,94934.31
2022-08-22T22:06:25.046Z,94935.94
2022-08-22T22:08:51.852Z,94932.53
2022-08-22T22:11:18.812Z,94944.41
2022-08-22T22:13:45.488Z,94946.47
2022-08-22T22:16:12.754Z,94942.13
2022-08-22T22:18:40.827Z,94945.84
2022-08-22T22:21:08.413Z,94945.94
2022-08-22T22:23:35.232Z,94951.13
2022-08-22T22:26:04.824Z,94945.47
2022-08-22T22:28:36.779Z,94958.59
2022-08-22T22:31:05.020Z,94958.84
2022-08-22T22:33:39.290Z,94957.28
2022-08-22T22:36:09.940Z,94967.69
2022-08-22T22:38:39.106Z,94967.56
2022-08-22T22:41:06.037Z,94977.28
2022-08-22T22:43:33.517Z,94965.53
2022-08-22T22:46:00.197Z,94967.44
2022-08-22T22:48:27.129Z,94978.97
2022-08-22T22:50:54.291Z,94978.53
2022-08-22T22:53:33.746Z,94986.44
2022-08-22T22:56:09.267Z,94981.44
2022-08-22T22:58:37.308Z,94989.22
2022-08-22T23:01:15.790Z,94989.66
2022-08-22T23:03:43.882Z,94986.75
2022-08-22T23:06:16.170Z,94992.69
2022-08-22T23:08:43.050Z,94992.81
2022-08-22T23:11:16.840Z,94988.44
2022-08-22T23:13:43.728Z,94994.13
2022-08-22T23:16:14.485Z,94990.13
2022-08-22T23:18:41.992Z,94992.34
2022-08-22T23:21:24.382Z,94988.09
2022-08-22T23:23:53.659Z,95000.19
2022-08-22T23:26:20.268Z,94990.06
2022-08-22T23:28:46.902Z,94980.69
2022-08-22T23:31:27.566Z,94988.00
2022-08-22T23:33:56.129Z,94981.59
2022-08-22T23:36:23.953Z,94989.22
2022-08-22T23:38:51.593Z,94990.34
2022-08-22T23:41:19.803Z,94990.69
2022-08-22T23:43:49.858Z,94991.53
2022-08-22T23:46:19.171Z,94988.22
2022-08-22T23:48:46.318Z,94990.47
2022-08-22T23:51:23.223Z,95000.16
2022-08-22T23:53:51.027Z,94997.69
2022-08-22T23:56:21.113Z,94985.81
2022-08-22T23:58:50.041Z,94986.09
